Goodnow, Wisconsin
Current Conditions -  °F | °C
As of 8:19 PM on Saturday 20 Dec 2014 (Local Time) from KRHI Reporting Station
Haze Haze  
Wind Chill: 18°   Ceiling: 1400
Heat Index: 26°   Visibility: 6mi
Dew Point: 24°   Wind: 7mph
Humidity: 92%   Direction: 150°SSE
Pressure: 30.14"   Gusts: NA
Location:  45.679°N, 89.6629°W
Report Text: KRHI 210219Z AUTO 15006KT 6SM BR OVC014 M03/M04 A3014 RMK AO2 T10331044
Loading
Personal Weather Stations






























Interactive Weather Map New forecast layout! Learn more

10-Day Weather Forecast

Advertisements
Track Severe Weather on mobile